createdAt,value
2023-12-07T00:01:20.810Z,-2.36
2023-12-07T00:04:11.654Z,-2.30
2023-12-07T00:07:02.444Z,-2.30
2023-12-07T00:09:53.312Z,-2.30
2023-12-07T00:12:44.146Z,-2.33
2023-12-07T00:15:35.227Z,-2.37
2023-12-07T00:18:26.108Z,-2.36
2023-12-07T00:21:16.847Z,-2.37
2023-12-07T00:24:07.751Z,-2.30
2023-12-07T00:26:58.547Z,-2.30
2023-12-07T00:29:49.844Z,-2.28
2023-12-07T00:32:44.432Z,-2.25
2023-12-07T00:35:35.214Z,-2.25
2023-12-07T00:38:26.032Z,-2.21
2023-12-07T00:41:16.728Z,-2.21
2023-12-07T00:44:07.436Z,-2.14
2023-12-07T00:46:58.152Z,-2.14
2023-12-07T00:49:49.213Z,-2.14
2023-12-07T00:52:39.936Z,-2.15
2023-12-07T00:55:31.086Z,-2.15
2023-12-07T00:58:21.953Z,-2.18
2023-12-07T01:01:12.813Z,-2.14
2023-12-07T01:04:03.695Z,-2.14
2023-12-07T01:06:54.623Z,-2.15
2023-12-07T01:09:45.419Z,-2.13
2023-12-07T01:12:37.102Z,-2.10
2023-12-07T01:15:28.333Z,-2.01
2023-12-07T01:18:19.144Z,-2.00
2023-12-07T01:21:09.941Z,-2.03
2023-12-07T01:24:10.632Z,-2.04
2023-12-07T01:27:06.410Z,-2.04
2023-12-07T01:29:57.268Z,-2.01
2023-12-07T01:32:47.988Z,-2.01
2023-12-07T01:35:38.697Z,-1.94
2023-12-07T01:38:29.476Z,-1.94
2023-12-07T01:41:20.317Z,-1.90
2023-12-07T01:44:11.081Z,-1.86
2023-12-07T01:47:02.883Z,-1.85
2023-12-07T01:49:54.632Z,-1.85
2023-12-07T01:52:49.158Z,-1.85
2023-12-07T01:55:41.157Z,-1.85
2023-12-07T01:58:32.445Z,-1.82
2023-12-07T02:01:24.174Z,-1.82
2023-12-07T02:04:15.284Z,-1.87
2023-12-07T02:07:07.054Z,-1.87
2023-12-07T02:09:59.530Z,-1.87
2023-12-07T02:12:50.501Z,-1.87
2023-12-07T02:15:41.277Z,-1.83
2023-12-07T02:19:12.983Z,-1.78
2023-12-07T02:22:13.524Z,-1.78
2023-12-07T02:25:10.568Z,-1.82
2023-12-07T02:28:01.326Z,-1.78
2023-12-07T02:30:52.094Z,-1.72
2023-12-07T02:33:42.997Z,-1.73
2023-12-07T02:36:36.420Z,-1.71
2023-12-07T02:39:27.253Z,-1.68
2023-12-07T02:42:18.501Z,-1.63
2023-12-07T02:45:11.366Z,-1.61
2023-12-07T02:48:02.760Z,-1.59
2023-12-07T02:50:53.554Z,-1.56
2023-12-07T02:53:44.276Z,-1.58
2023-12-07T02:56:35.037Z,-1.55
2023-12-07T02:59:25.787Z,-1.55
2023-12-07T03:02:16.585Z,-1.55
2023-12-07T03:05:08.529Z,-1.58
2023-12-07T03:07:59.327Z,-1.54
2023-12-07T03:10:50.067Z,-1.54
2023-12-07T03:13:40.821Z,-1.54
2023-12-07T03:16:31.977Z,-1.56
2023-12-07T03:19:22.829Z,-1.52
2023-12-07T03:22:14.851Z,-1.50
2023-12-07T03:25:05.953Z,-1.48
2023-12-07T03:27:56.885Z,-1.50
2023-12-07T03:30:47.893Z,-1.55
2023-12-07T03:33:39.608Z,-1.55
2023-12-07T03:36:32.469Z,-1.56
2023-12-07T03:39:24.067Z,-1.56
2023-12-07T03:42:48.870Z,-1.55
2023-12-07T03:45:25.926Z,-1.58
2023-12-07T03:48:16.771Z,-1.58
2023-12-07T03:51:07.820Z,-1.52
2023-12-07T03:53:58.573Z,-1.52
2023-12-07T03:56:50.041Z,-1.52
2023-12-07T03:59:40.941Z,-1.52
2023-12-07T04:02:34.231Z,-1.52
2023-12-07T04:05:25.409Z,-1.55
2023-12-07T04:08:16.440Z,-1.52
2023-12-07T04:11:07.165Z,-1.55
2023-12-07T04:13:57.935Z,-1.56
2023-12-07T04:16:48.897Z,-1.63
2023-12-07T04:19:39.629Z,-1.59
2023-12-07T04:22:30.534Z,-1.58
2023-12-07T04:25:21.398Z,-1.61
2023-12-07T04:28:12.238Z,-1.63
2023-12-07T04:31:03.027Z,-1.63
2023-12-07T04:33:54.064Z,-1.66
2023-12-07T04:36:44.820Z,-1.65
2023-12-07T04:39:37.436Z,-1.62
2023-12-07T04:42:28.213Z,-1.59
2023-12-07T04:45:19.026Z,-1.55
2023-12-07T04:48:09.921Z,-1.52
2023-12-07T04:51:00.671Z,-1.55
2023-12-07T04:53:52.283Z,-1.54
2023-12-07T04:56:43.404Z,-1.55
2023-12-07T04:59:35.015Z,-1.54
2023-12-07T05:02:28.870Z,-1.54
2023-12-07T05:05:20.007Z,-1.56
2023-12-07T05:08:10.784Z,-1.55
2023-12-07T05:11:01.704Z,-1.56
2023-12-07T05:13:52.802Z,-1.56
2023-12-07T05:16:43.681Z,-1.54
2023-12-07T05:19:34.604Z,-1.52
2023-12-07T05:22:25.599Z,-1.54
2023-12-07T05:25:17.065Z,-1.51
2023-12-07T05:28:07.885Z,-1.50
2023-12-07T05:30:58.706Z,-1.51
2023-12-07T05:33:49.956Z,-1.50
2023-12-07T05:36:40.741Z,-1.48
2023-12-07T05:39:31.656Z,-1.48
2023-12-07T05:42:22.758Z,-1.44
2023-12-07T05:45:13.601Z,-1.45
2023-12-07T05:48:04.587Z,-1.44
2023-12-07T05:50:55.501Z,-1.42
2023-12-07T05:53:46.235Z,-1.44
2023-12-07T05:56:37.018Z,-1.44
2023-12-07T05:59:27.792Z,-1.41
2023-12-07T06:02:18.548Z,-1.45
2023-12-07T06:05:10.175Z,-1.48
2023-12-07T06:08:01.002Z,-1.51
2023-12-07T06:10:51.741Z,-1.50
2023-12-07T06:13:42.598Z,-1.48
2023-12-07T06:16:33.521Z,-1.45
2023-12-07T06:19:24.350Z,-1.45
2023-12-07T06:22:15.315Z,-1.48
2023-12-07T06:25:06.917Z,-1.48
2023-12-07T06:27:57.692Z,-1.44
2023-12-07T06:30:48.971Z,-1.42
2023-12-07T06:33:39.715Z,-1.40
2023-12-07T06:36:30.547Z,-1.37
2023-12-07T06:39:21.494Z,-1.42
2023-12-07T06:42:12.283Z,-1.44
2023-12-07T06:45:03.634Z,-1.42
2023-12-07T06:47:54.420Z,-1.42
2023-12-07T06:50:45.267Z,-1.41
2023-12-07T06:53:35.993Z,-1.38
2023-12-07T06:56:26.908Z,-1.37
2023-12-07T06:59:17.594Z,-1.34
2023-12-07T07:02:08.467Z,-1.33
2023-12-07T07:04:59.495Z,-1.27
2023-12-07T07:07:52.659Z,-1.24
2023-12-07T07:10:47.878Z,-1.24
2023-12-07T07:13:38.867Z,-1.23
2023-12-07T07:16:29.686Z,-1.21
2023-12-07T07:19:20.737Z,-1.20
2023-12-07T07:22:11.604Z,-1.16
2023-12-07T07:25:02.507Z,-1.12
2023-12-07T07:27:55.690Z,-1.00
2023-12-07T07:30:46.468Z,-1.00
2023-12-07T07:33:37.519Z,-0.92
2023-12-07T07:36:28.404Z,-0.89
2023-12-07T07:39:19.315Z,-0.82
2023-12-07T07:42:10.034Z,-0.73
2023-12-07T07:45:00.848Z,-0.64
2023-12-07T07:47:51.647Z,-0.51
2023-12-07T07:50:42.561Z,-0.47
2023-12-07T07:53:33.592Z,-0.40
2023-12-07T07:56:26.081Z,-0.31
2023-12-07T07:59:17.041Z,-0.17
2023-12-07T08:02:08.007Z,-0.05
2023-12-07T08:04:58.729Z,0.10
2023-12-07T08:07:49.450Z,0.28
2023-12-07T08:10:53.770Z,0.32
2023-12-07T08:13:46.948Z,0.44
2023-12-07T08:16:37.816Z,0.55
2023-12-07T08:19:28.721Z,0.55
2023-12-07T08:22:20.002Z,0.66
2023-12-07T08:25:12.581Z,0.72
2023-12-07T08:28:04.016Z,0.79
2023-12-07T08:30:54.764Z,0.83
2023-12-07T08:33:45.624Z,0.87
2023-12-07T08:36:36.410Z,0.94
2023-12-07T08:39:27.346Z,1.03
2023-12-07T08:42:18.104Z,1.05
2023-12-07T08:45:09.511Z,1.11
2023-12-07T08:48:00.391Z,1.15
2023-12-07T08:50:51.380Z,1.28
2023-12-07T08:53:42.183Z,1.38
2023-12-07T08:56:32.916Z,1.32
2023-12-07T08:59:24.522Z,1.30
2023-12-07T09:02:19.059Z,1.25
2023-12-07T09:05:14.462Z,1.21
2023-12-07T09:08:05.298Z,1.20
2023-12-07T09:10:56.170Z,1.20
2023-12-07T09:13:46.950Z,1.21
2023-12-07T09:16:46.074Z,1.14
2023-12-07T09:19:36.773Z,1.20
2023-12-07T09:22:35.146Z,1.28
2023-12-07T09:25:29.398Z,1.34
2023-12-07T09:28:20.366Z,1.34
2023-12-07T09:31:11.205Z,1.30
2023-12-07T09:34:12.037Z,1.34
2023-12-07T09:37:10.885Z,1.53
2023-12-07T09:40:02.626Z,1.60
2023-12-07T09:42:53.836Z,1.62
2023-12-07T09:45:46.309Z,1.62
2023-12-07T09:48:40.677Z,1.67
2023-12-07T09:51:34.401Z,1.73
2023-12-07T09:54:27.675Z,1.70
2023-12-07T09:57:18.418Z,1.74
2023-12-07T10:00:11.267Z,1.83
2023-12-07T10:03:02.140Z,1.74
2023-12-07T10:06:01.368Z,1.74
2023-12-07T10:09:04.351Z,1.80
2023-12-07T10:12:05.431Z,1.87
2023-12-07T10:14:56.147Z,1.94
2023-12-07T10:17:51.925Z,1.97
2023-12-07T10:20:46.916Z,1.98
2023-12-07T10:23:39.931Z,2.15
2023-12-07T10:26:33.149Z,2.22
2023-12-07T10:29:30.683Z,2.27
2023-12-07T10:32:24.327Z,2.41
2023-12-07T10:35:15.144Z,2.53
2023-12-07T10:38:06.093Z,2.66
2023-12-07T10:41:07.665Z,2.67
2023-12-07T10:44:05.195Z,2.69
2023-12-07T10:46:59.525Z,2.73
2023-12-07T10:49:56.686Z,2.70
2023-12-07T10:52:55.788Z,2.70
2023-12-07T10:55:54.170Z,2.72
2023-12-07T10:58:46.491Z,2.69
2023-12-07T11:01:41.776Z,2.75
2023-12-07T11:04:32.831Z,2.72
2023-12-07T11:07:28.999Z,2.63
2023-12-07T11:10:48.445Z,2.57
2023-12-07T11:13:39.497Z,2.60
2023-12-07T11:16:36.438Z,2.69
2023-12-07T11:19:43.205Z,2.73
2023-12-07T11:22:34.122Z,2.76
2023-12-07T11:25:25.513Z,2.73
2023-12-07T11:28:16.803Z,2.76
2023-12-07T11:31:09.010Z,2.63
2023-12-07T11:34:09.075Z,2.49
2023-12-07T11:36:59.866Z,2.45
2023-12-07T11:39:51.700Z,2.42
2023-12-07T11:42:44.594Z,2.44
2023-12-07T11:45:55.603Z,2.45
2023-12-07T11:48:50.119Z,2.48
2023-12-07T11:51:41.001Z,2.41
2023-12-07T11:54:32.273Z,2.25
2023-12-07T11:57:23.746Z,2.18
2023-12-07T12:00:15.570Z,2.04
2023-12-07T12:03:07.638Z,2.02
2023-12-07T12:05:58.633Z,2.01
2023-12-07T12:08:49.799Z,2.00
2023-12-07T12:11:48.635Z,1.97
2023-12-07T12:14:39.433Z,1.94
2023-12-07T12:17:30.250Z,1.83
2023-12-07T12:20:21.126Z,1.70
2023-12-07T12:23:12.107Z,1.76
2023-12-07T12:26:03.237Z,1.77
2023-12-07T12:28:54.163Z,1.69
2023-12-07T12:31:45.525Z,1.70
2023-12-07T12:34:36.689Z,1.69
2023-12-07T12:37:28.086Z,1.64
2023-12-07T12:40:21.169Z,1.73
2023-12-07T12:43:12.339Z,1.81
2023-12-07T12:46:05.719Z,1.80
2023-12-07T12:49:00.305Z,1.81
2023-12-07T12:51:51.084Z,1.81
2023-12-07T12:54:44.965Z,1.74
2023-12-07T12:57:37.482Z,1.72
2023-12-07T13:00:28.574Z,1.69
2023-12-07T13:03:19.411Z,1.66
2023-12-07T13:06:10.221Z,1.66
2023-12-07T13:09:01.075Z,1.62
2023-12-07T13:11:51.889Z,1.62
2023-12-07T13:14:49.051Z,1.49
2023-12-07T13:17:41.560Z,1.46
2023-12-07T13:20:45.751Z,1.43
2023-12-07T13:23:40.899Z,1.39
2023-12-07T13:26:31.705Z,1.31
2023-12-07T13:29:32.874Z,1.27
2023-12-07T13:32:27.496Z,1.22
2023-12-07T13:35:18.432Z,1.17
2023-12-07T13:38:09.373Z,1.14
2023-12-07T13:41:00.934Z,1.09
2023-12-07T13:43:51.891Z,1.07
2023-12-07T13:46:43.670Z,1.11
2023-12-07T13:49:35.309Z,1.07
2023-12-07T13:52:26.942Z,1.05
2023-12-07T13:55:17.743Z,1.09
2023-12-07T13:58:08.658Z,1.05
2023-12-07T14:00:59.579Z,1.04
2023-12-07T14:03:50.360Z,1.03
2023-12-07T14:06:41.192Z,0.97
2023-12-07T14:09:31.913Z,0.94
2023-12-07T14:12:22.731Z,0.90
2023-12-07T14:15:13.511Z,0.88
2023-12-07T14:18:04.624Z,0.88
2023-12-07T14:21:07.625Z,0.84
2023-12-07T14:24:05.163Z,0.81
2023-12-07T14:26:56.460Z,0.80
2023-12-07T14:29:47.759Z,0.80
2023-12-07T14:32:38.843Z,0.79
2023-12-07T14:35:29.743Z,0.80
2023-12-07T14:38:20.568Z,0.77
2023-12-07T14:41:13.614Z,0.77
2023-12-07T14:44:04.376Z,0.75
2023-12-07T14:46:55.156Z,0.76
2023-12-07T14:49:45.904Z,0.73
2023-12-07T14:52:36.619Z,0.70
2023-12-07T14:55:28.137Z,0.67
2023-12-07T14:58:19.041Z,0.63
2023-12-07T15:01:10.060Z,0.65
2023-12-07T15:04:01.000Z,0.65
2023-12-07T15:06:51.965Z,0.65
2023-12-07T15:09:42.990Z,0.59
2023-12-07T15:12:34.106Z,0.62
2023-12-07T15:15:25.117Z,0.63
2023-12-07T15:18:16.378Z,0.63
2023-12-07T15:21:07.760Z,0.63
2023-12-07T15:24:01.306Z,0.57
2023-12-07T15:26:52.361Z,0.53
2023-12-07T15:29:43.242Z,0.55
2023-12-07T15:32:34.262Z,0.56
2023-12-07T15:35:25.126Z,0.52
2023-12-07T15:38:15.939Z,0.55
2023-12-07T15:41:06.923Z,0.52
2023-12-07T15:43:57.769Z,0.52
2023-12-07T15:46:48.507Z,0.50
2023-12-07T15:49:39.424Z,0.49
2023-12-07T15:52:30.346Z,0.45
2023-12-07T15:55:21.104Z,0.41
2023-12-07T15:58:12.276Z,0.39
2023-12-07T16:01:04.386Z,0.35
2023-12-07T16:03:55.201Z,0.41
2023-12-07T16:06:46.278Z,0.38
2023-12-07T16:09:38.670Z,0.38
2023-12-07T16:12:29.719Z,0.35
2023-12-07T16:15:20.759Z,0.37
2023-12-07T16:18:11.712Z,0.35
2023-12-07T16:21:02.528Z,0.34
2023-12-07T16:23:53.365Z,0.32
2023-12-07T16:26:44.360Z,0.31
2023-12-07T16:29:35.243Z,0.31
2023-12-07T16:32:26.971Z,0.27
2023-12-07T16:35:18.076Z,0.24
2023-12-07T16:38:08.985Z,0.24
2023-12-07T16:40:59.684Z,0.29
2023-12-07T16:43:50.454Z,0.31
2023-12-07T16:46:44.147Z,0.27
2023-12-07T16:49:34.975Z,0.31
2023-12-07T16:52:25.843Z,0.34
2023-12-07T16:55:16.676Z,0.32
2023-12-07T16:58:08.371Z,0.35
2023-12-07T17:01:00.336Z,0.31
2023-12-07T17:03:51.718Z,0.29
2023-12-07T17:06:50.543Z,0.29
2023-12-07T17:09:47.174Z,0.27
2023-12-07T17:12:38.328Z,0.29
2023-12-07T17:15:29.106Z,0.32
2023-12-07T17:18:19.951Z,0.34
2023-12-07T17:21:11.646Z,0.35
2023-12-07T17:24:02.804Z,0.34
2023-12-07T17:26:54.803Z,0.34
2023-12-07T17:29:45.872Z,0.32
2023-12-07T17:32:36.704Z,0.29
2023-12-07T17:35:27.591Z,0.28
2023-12-07T17:38:18.428Z,0.27
2023-12-07T17:41:09.904Z,0.31
2023-12-07T17:44:02.329Z,0.34
2023-12-07T17:46:53.151Z,0.35
2023-12-07T17:49:43.967Z,0.38
2023-12-07T17:52:34.768Z,0.39
2023-12-07T17:55:25.614Z,0.38
2023-12-07T17:58:17.231Z,0.35
2023-12-07T18:01:08.032Z,0.37
2023-12-07T18:04:00.058Z,0.32
2023-12-07T18:06:51.484Z,0.34
2023-12-07T18:09:42.974Z,0.35
2023-12-07T18:12:33.726Z,0.35
2023-12-07T18:15:24.422Z,0.34
2023-12-07T18:18:15.383Z,0.32
2023-12-07T18:21:10.210Z,0.31
2023-12-07T18:24:01.171Z,0.31
2023-12-07T18:26:51.956Z,0.31
2023-12-07T18:29:43.606Z,0.29
2023-12-07T18:32:35.174Z,0.28
2023-12-07T18:35:26.978Z,0.31
2023-12-07T18:38:18.349Z,0.31
2023-12-07T18:41:09.193Z,0.32
2023-12-07T18:43:59.948Z,0.35
2023-12-07T18:46:50.669Z,0.29
2023-12-07T18:49:41.583Z,0.31
2023-12-07T18:52:32.432Z,0.28
2023-12-07T18:55:23.144Z,0.28
2023-12-07T18:58:13.964Z,0.21
2023-12-07T19:01:04.901Z,0.19
2023-12-07T19:03:55.638Z,0.21
2023-12-07T19:06:46.430Z,0.18
2023-12-07T19:09:37.203Z,0.15
2023-12-07T19:12:28.152Z,0.19
2023-12-07T19:15:18.955Z,0.18
2023-12-07T19:18:10.489Z,0.21
2023-12-07T19:21:01.336Z,0.25
2023-12-07T19:23:52.214Z,0.22
2023-12-07T19:26:43.443Z,0.24
2023-12-07T19:29:34.274Z,0.22
2023-12-07T19:32:25.140Z,0.25
2023-12-07T19:35:15.996Z,0.25
2023-12-07T19:38:06.707Z,0.25
2023-12-07T19:40:57.522Z,0.24
2023-12-07T19:43:48.349Z,0.24
2023-12-07T19:46:39.685Z,0.22
2023-12-07T19:49:30.570Z,0.27
2023-12-07T19:52:21.362Z,0.25
2023-12-07T19:55:12.130Z,0.27
2023-12-07T19:58:04.431Z,0.25
2023-12-07T20:00:55.598Z,0.24
2023-12-07T20:03:46.363Z,0.24
2023-12-07T20:06:39.609Z,0.25
2023-12-07T20:09:30.770Z,0.27
2023-12-07T20:12:22.456Z,0.28
2023-12-07T20:15:13.287Z,0.28
2023-12-07T20:18:04.386Z,0.24
2023-12-07T20:20:55.211Z,0.24
2023-12-07T20:23:46.159Z,0.28
2023-12-07T20:26:36.952Z,0.29
2023-12-07T20:29:27.844Z,0.28
2023-12-07T20:32:18.608Z,0.25
2023-12-07T20:35:09.892Z,0.27
2023-12-07T20:38:00.666Z,0.31
2023-12-07T20:40:51.437Z,0.34
2023-12-07T20:43:42.527Z,0.31
2023-12-07T20:46:33.397Z,0.28
2023-12-07T20:49:24.184Z,0.28
2023-12-07T20:52:15.037Z,0.21
2023-12-07T20:55:06.758Z,0.19
2023-12-07T20:57:57.499Z,0.19
2023-12-07T21:00:48.310Z,0.21
2023-12-07T21:03:39.559Z,0.15
2023-12-07T21:06:30.493Z,0.15
2023-12-07T21:09:21.262Z,0.17
2023-12-07T21:12:12.203Z,0.17
2023-12-07T21:15:05.727Z,0.17
2023-12-07T21:17:56.710Z,0.17
2023-12-07T21:20:47.734Z,0.15
2023-12-07T21:23:38.568Z,0.15
2023-12-07T21:26:29.394Z,0.13
2023-12-07T21:29:20.139Z,0.11
2023-12-07T21:32:10.961Z,0.14
2023-12-07T21:35:01.819Z,0.17
2023-12-07T21:37:52.618Z,0.15
2023-12-07T21:40:43.319Z,0.15
2023-12-07T21:43:34.275Z,0.15
2023-12-07T21:46:24.981Z,0.14
2023-12-07T21:49:15.836Z,0.14
2023-12-07T21:52:06.670Z,0.10
2023-12-07T21:54:57.400Z,0.14
2023-12-07T21:57:48.130Z,0.17
2023-12-07T22:00:39.235Z,0.18
2023-12-07T22:03:30.005Z,0.14
2023-12-07T22:06:27.505Z,0.13
2023-12-07T22:09:20.211Z,0.13
2023-12-07T22:12:12.333Z,0.14
2023-12-07T22:15:03.339Z,0.13
2023-12-07T22:17:54.200Z,0.15
2023-12-07T22:20:45.135Z,0.11
2023-12-07T22:23:35.894Z,0.10
2023-12-07T22:26:26.668Z,0.05
2023-12-07T22:29:17.378Z,0.08
2023-12-07T22:32:08.093Z,0.10
2023-12-07T22:34:59.289Z,0.10
2023-12-07T22:37:50.243Z,0.05
2023-12-07T22:40:41.025Z,0.04
2023-12-07T22:43:31.753Z,0.00
2023-12-07T22:46:22.617Z,-0.06
2023-12-07T22:49:16.634Z,-0.09
2023-12-07T22:52:08.002Z,-0.09
2023-12-07T22:54:58.811Z,-0.11
2023-12-07T22:57:49.552Z,-0.16
2023-12-07T23:00:40.278Z,-0.19
2023-12-07T23:03:31.250Z,-0.20
2023-12-07T23:06:22.030Z,-0.19
2023-12-07T23:09:12.810Z,-0.23
2023-12-07T23:12:03.790Z,-0.23
2023-12-07T23:14:54.543Z,-0.21
2023-12-07T23:17:45.450Z,-0.23
2023-12-07T23:20:36.402Z,-0.20
2023-12-07T23:23:31.483Z,-0.20
2023-12-07T23:26:22.450Z,-0.19
2023-12-07T23:29:13.317Z,-0.26
2023-12-07T23:32:04.351Z,-0.26
2023-12-07T23:34:55.068Z,-0.26
2023-12-07T23:37:45.857Z,-0.26
2023-12-07T23:40:36.589Z,-0.30
2023-12-07T23:43:27.337Z,-0.36
2023-12-07T23:46:18.689Z,-0.36
2023-12-07T23:49:10.944Z,-0.36
2023-12-07T23:52:01.750Z,-0.37
2023-12-07T23:54:52.483Z,-0.41
2023-12-07T23:57:43.250Z,-0.38
